Time;durP1;ratioP1;P1;durP2;ratioP2;P2;SDS_P1;SDS_P2;PMS_P1;PMS_P2;Temp;Humidity;BMP_temperature;BMP_pressure;BME280_temperature;BME280_humidity;BME280_pressure;Samples;Min_cycle;Max_cycle;Signal;HPM_P1;HPM_P2
2023/05/03 00:01:48;;;;;;;;;;;;;;;16.41;56.52;102147.72;5132698;27;20310;-85
2023/05/03 00:04:15;;;;;;;;;;;;;;;16.41;56.50;102142.47;5141629;27;19962;-85
2023/05/03 00:06:42;;;;;;;;;;;;;;;16.42;56.50;102139.88;5107131;27;19920;-86
2023/05/03 00:09:09;;;;;;;;;;;;;;;16.37;56.50;102148.38;5109619;27;20409;-86
2023/05/03 00:11:35;;;;;;;;;;;;;;;16.37;56.56;102143.13;5140870;27;19919;-86
2023/05/03 00:14:00;;;;;;;;;;;;;;;16.43;56.54;102146.06;5112768;27;19926;-85
2023/05/03 00:16:26;;;;;;;;;;;;;;;16.38;56.29;102145.84;5129487;27;19915;-86
2023/05/03 00:18:51;;;;;;;;;;;;;;;16.39;56.32;102142.38;5132716;27;19924;-86
2023/05/03 00:21:16;;;;;;;;;;;;;;;16.37;56.46;102146.66;5110354;27;19936;-85
2023/05/03 00:23:42;;;;;;;;;;;;;;;16.33;56.37;102155.22;5113288;27;19930;-85
2023/05/03 00:26:07;;;;;;;;;;;;;;;16.32;56.43;102147.22;5138984;27;20308;-85
2023/05/03 00:28:33;;;;;;;;;;;;;;;16.32;56.33;102150.78;5133059;27;20407;-86
2023/05/03 00:31:05;;;;;;;;;;;;;;;16.34;56.28;102149.16;5119840;27;20364;-85
2023/05/03 00:33:30;;;;;;;;;;;;;;;16.37;56.17;102141.38;5098205;27;19920;-86
2023/05/03 00:35:56;;;;;;;;;;;;;;;16.36;56.09;102147.50;5109012;27;19920;-86
2023/05/03 00:38:21;;;;;;;;;;;;;;;16.33;56.28;102141.16;5135424;27;20432;-85
2023/05/03 00:40:52;;;;;;;;;;;;;;;16.32;56.41;102141.94;5132139;27;19953;-85
2023/05/03 00:43:17;;;;;;;;;;;;;;;16.33;56.33;102131.50;5114087;27;19924;-84
2023/05/03 00:45:45;;;;;;;;;;;;;;;16.31;56.30;102132.25;5127523;27;19987;-86
2023/05/03 00:48:10;;;;;;;;;;;;;;;16.31;56.40;102137.53;5129842;27;19927;-86
2023/05/03 00:50:36;;;;;;;;;;;;;;;16.30;56.46;102131.34;5113920;27;19919;-86
2023/05/03 00:53:02;;;;;;;;;;;;;;;16.29;56.23;102135.69;5113434;27;19927;-85
2023/05/03 00:55:27;;;;;;;;;;;;;;;16.30;56.32;102133.97;5130611;27;19998;-85
2023/05/03 00:57:52;;;;;;;;;;;;;;;16.31;56.39;102127.88;5119676;27;19916;-85
2023/05/03 01:00:18;;;;;;;;;;;;;;;16.34;56.20;102124.47;5141371;27;19938;-85
2023/05/03 01:02:43;;;;;;;;;;;;;;;16.31;56.23;102124.34;5113654;27;19923;-86
2023/05/03 01:05:09;;;;;;;;;;;;;;;16.31;56.18;102126.97;5111248;27;20404;-86
2023/05/03 01:07:38;;;;;;;;;;;;;;;16.31;56.25;102119.97;5115057;27;19922;-85
2023/05/03 01:10:22;;;;;;;;;;;;;;;16.32;56.07;102112.94;5117138;27;20388;-85
2023/05/03 01:13:02;;;;;;;;;;;;;;;16.31;56.05;102117.31;5135897;27;20485;-85
2023/05/03 01:15:33;;;;;;;;;;;;;;;16.26;56.03;102119.72;5115667;27;19958;-85
2023/05/03 01:18:03;;;;;;;;;;;;;;;16.28;55.92;102119.81;5096436;27;19937;-85
2023/05/03 01:20:29;;;;;;;;;;;;;;;16.26;56.07;102119.72;5131064;27;20414;-85
2023/05/03 01:22:58;;;;;;;;;;;;;;;16.28;55.89;102110.16;5112605;27;19920;-85
2023/05/03 01:25:23;;;;;;;;;;;;;;;16.26;56.02;102111.81;5133761;27;20473;-85
2023/05/03 01:27:49;;;;;;;;;;;;;;;16.28;56.00;102120.72;5114612;27;19957;-85
2023/05/03 01:30:15;;;;;;;;;;;;;;;16.28;55.96;102118.09;5102793;27;20014;-86
2023/05/03 01:32:43;;;;;;;;;;;;;;;16.28;55.96;102119.81;5095445;27;20026;-85
2023/05/03 01:35:19;;;;;;;;;;;;;;;16.24;56.10;102117.84;5131605;27;20415;-86
2023/05/03 01:37:44;;;;;;;;;;;;;;;16.24;55.96;102123.13;5111149;27;19919;-85
2023/05/03 01:40:10;;;;;;;;;;;;;;;16.25;55.94;102124.91;5112837;27;19923;-85
2023/05/03 01:42:35;;;;;;;;;;;;;;;16.24;55.95;102126.66;5125868;27;19920;-85
2023/05/03 01:45:02;;;;;;;;;;;;;;;16.25;56.17;102125.81;5121524;27;19919;-85
2023/05/03 01:47:28;;;;;;;;;;;;;;;16.23;56.06;102122.22;5132196;27;20319;-85
2023/05/03 01:49:53;;;;;;;;;;;;;;;16.26;55.69;102122.38;5132568;27;19915;-85
2023/05/03 01:52:19;;;;;;;;;;;;;;;16.24;55.92;102115.22;5096943;27;19918;-85
2023/05/03 01:54:44;;;;;;;;;;;;;;;16.22;56.03;102119.50;5122863;27;20328;-85
2023/05/03 01:57:09;;;;;;;;;;;;;;;16.20;55.93;102119.41;5100786;27;20353;-85
2023/05/03 01:59:35;;;;;;;;;;;;;;;16.22;56.06;102116.84;5124913;27;20384;-85
2023/05/03 02:02:00;;;;;;;;;;;;;;;16.23;55.92;102116.94;5109513;27;20358;-85
2023/05/03 02:04:26;;;;;;;;;;;;;;;16.19;56.07;102120.25;5128591;27;19919;-85
2023/05/03 02:06:51;;;;;;;;;;;;;;;16.20;55.91;102118.50;5119796;27;20622;-85
2023/05/03 02:09:17;;;;;;;;;;;;;;;16.20;56.01;102116.78;5141527;27;19932;-84
2023/05/03 02:11:42;;;;;;;;;;;;;;;16.18;56.04;102120.16;5092690;28;19924;-84
2023/05/03 02:14:08;;;;;;;;;;;;;;;16.19;55.83;102120.25;5106310;28;20381;-84
2023/05/03 02:16:33;;;;;;;;;;;;;;;16.16;55.85;102122.69;5110411;27;19976;-85
2023/05/03 02:18:59;;;;;;;;;;;;;;;16.18;55.88;102121.06;5142346;27;19979;-84
2023/05/03 02:21:25;;;;;;;;;;;;;;;16.20;55.84;102111.50;5138206;27;20068;-84
2023/05/03 02:23:51;;;;;;;;;;;;;;;16.16;55.80;102106.88;5136844;27;19919;-84
2023/05/03 02:26:16;;;;;;;;;;;;;;;16.19;55.79;102106.13;5112216;27;19920;-84
2023/05/03 02:28:41;;;;;;;;;;;;;;;16.15;55.93;102102.47;5136794;27;19933;-85
2023/05/03 02:31:07;;;;;;;;;;;;;;;16.18;55.71;102118.41;5112077;28;19950;-84
2023/05/03 02:33:33;;;;;;;;;;;;;;;16.16;55.83;102112.16;5111720;28;20297;-85
2023/05/03 02:35:58;;;;;;;;;;;;;;;16.18;55.62;102117.53;5099357;28;20035;-85
2023/05/03 02:38:23;;;;;;;;;;;;;;;16.15;55.76;102115.63;5112188;27;20298;-84
2023/05/03 02:40:49;;;;;;;;;;;;;;;16.15;55.56;102106.78;5101890;27;19939;-85
2023/05/03 02:43:15;;;;;;;;;;;;;;;16.13;55.82;102100.53;5140640;27;20404;-84
2023/05/03 02:45:41;;;;;;;;;;;;;;;16.13;55.66;102104.09;5130143;27;20410;-85
2023/05/03 02:48:07;;;;;;;;;;;;;;;16.11;55.66;102108.38;5137164;27;20385;-84
2023/05/03 02:50:32;;;;;;;;;;;;;;;16.09;55.81;102104.75;5119455;27;19923;-85
2023/05/03 02:52:57;;;;;;;;;;;;;;;16.09;55.64;102110.03;5139675;27;19919;-86
2023/05/03 02:55:23;;;;;;;;;;;;;;;16.11;55.70;102104.81;5094385;28;19923;-85
2023/05/03 02:57:48;;;;;;;;;;;;;;;16.12;55.70;102101.38;5120826;27;20328;-85
2023/05/03 03:00:14;;;;;;;;;;;;;;;16.10;55.81;102105.66;5144611;27;19915;-84
2023/05/03 03:02:39;;;;;;;;;;;;;;;16.10;55.83;102101.28;5139446;27;20430;-84
2023/05/03 03:05:05;;;;;;;;;;;;;;;16.10;55.64;102114.47;5113030;28;19916;-84
2023/05/03 03:07:30;;;;;;;;;;;;;;;16.08;55.79;102108.22;5109451;28;19920;-84
2023/05/03 03:09:56;;;;;;;;;;;;;;;16.06;55.78;102120.41;5117756;28;20018;-84
2023/05/03 03:12:21;;;;;;;;;;;;;;;16.05;55.76;102121.22;5140228;27;19926;-84
2023/05/03 03:14:47;;;;;;;;;;;;;;;16.04;55.66;102115.06;5120698;27;19922;-84
2023/05/03 03:17:12;;;;;;;;;;;;;;;16.07;55.62;102116.94;5108729;28;20477;-85
2023/05/03 03:19:38;;;;;;;;;;;;;;;16.07;55.59;102130.13;5095287;27;19933;-85
2023/05/03 03:22:03;;;;;;;;;;;;;;;16.06;55.64;102130.94;5117589;28;20408;-85
2023/05/03 03:24:28;;;;;;;;;;;;;;;16.03;55.71;102123.78;5113929;27;20449;-84
2023/05/03 03:26:54;;;;;;;;;;;;;;;16.03;55.69;102123.78;5130457;27;20022;-84
2023/05/03 03:29:19;;;;;;;;;;;;;;;16.03;55.71;102128.16;5110214;27;20353;-85
2023/05/03 03:31:45;;;;;;;;;;;;;;;16.03;55.69;102128.16;5146908;27;19915;-84
2023/05/03 03:34:13;;;;;;;;;;;;;;;16.01;55.71;102130.69;5135330;27;19952;-84
2023/05/03 03:36:39;;;;;;;;;;;;;;;16.02;55.70;102129.88;5135796;27;19923;-84
2023/05/03 03:39:04;;;;;;;;;;;;;;;16.04;55.71;102132.59;5117001;27;19912;-84
2023/05/03 03:41:31;;;;;;;;;;;;;;;16.03;55.58;102139.59;5123617;27;19922;-85
2023/05/03 03:43:56;;;;;;;;;;;;;;;16.02;55.66;102131.59;5122316;27;20408;-84
2023/05/03 03:46:22;;;;;;;;;;;;;;;15.99;55.80;102129.72;5132169;27;19969;-84
2023/05/03 03:48:47;;;;;;;;;;;;;;;15.99;55.75;102124.44;5123072;27;19915;-85
2023/05/03 03:51:13;;;;;;;;;;;;;;;15.99;55.71;102131.44;5134919;27;20373;-85
2023/05/03 03:53:39;;;;;;;;;;;;;;;15.98;55.75;102129.63;5147420;27;20006;-84
2023/05/03 03:56:04;;;;;;;;;;;;;;;15.96;55.84;102137.47;5130714;27;20342;-85
2023/05/03 03:58:30;;;;;;;;;;;;;;;15.96;55.76;102139.16;5147236;27;19915;-84
2023/05/03 04:00:56;;;;;;;;;;;;;;;15.96;55.80;102142.72;5121013;27;19923;-84
2023/05/03 04:03:21;;;;;;;;;;;;;;;15.96;55.87;102150.63;5134011;27;20547;-84
2023/05/03 04:05:46;;;;;;;;;;;;;;;15.94;55.82;102149.66;5111260;27;20467;-84
2023/05/03 04:08:12;;;;;;;;;;;;;;;15.94;55.87;102153.97;5110206;27;20324;-85
2023/05/03 04:10:37;;;;;;;;;;;;;;;15.95;55.97;102146.16;5108939;27;20357;-86
2023/05/03 04:13:03;;;;;;;;;;;;;;;15.97;55.65;102156.81;5101617;27;20598;-85
2023/05/03 04:15:28;;;;;;;;;;;;;;;15.92;55.95;102153.00;5128478;27;19919;-85
2023/05/03 04:17:54;;;;;;;;;;;;;;;15.92;55.93;102161.84;5110214;27;20015;-84
2023/05/03 04:20:20;;;;;;;;;;;;;;;15.92;55.97;102159.19;5128576;27;20435;-84
2023/05/03 04:22:45;;;;;;;;;;;;;;;15.92;55.83;102159.19;5124582;27;19931;-85
2023/05/03 04:25:15;;;;;;;;;;;;;;;15.93;55.94;102163.63;5138995;27;20426;-85
2023/05/03 04:27:41;;;;;;;;;;;;;;;15.91;56.04;102174.91;5107396;27;20401;-84
2023/05/03 04:30:07;;;;;;;;;;;;;;;15.89;56.01;102166.91;5122937;27;19926;-86
2023/05/03 04:32:36;;;;;;;;;;;;;;;15.92;55.94;102167.09;5133253;27;20015;-86
2023/05/03 04:35:03;;;;;;;;;;;;;;;15.90;55.95;102160.84;5103352;27;19919;-85
2023/05/03 04:37:28;;;;;;;;;;;;;;;15.91;55.87;102154.72;5125943;27;19924;-85
2023/05/03 04:39:53;;;;;;;;;;;;;;;15.90;55.87;102155.56;5113276;27;19926;-85
2023/05/03 04:42:19;;;;;;;;;;;;;;;15.91;55.88;102151.19;5097227;27;20430;-84
2023/05/03 04:44:44;;;;;;;;;;;;;;;15.91;55.98;102149.47;5124786;27;19920;-84
2023/05/03 04:47:10;;;;;;;;;;;;;;;15.87;56.17;102148.41;5126215;27;19919;-84
2023/05/03 04:49:36;;;;;;;;;;;;;;;15.87;56.00;102158.94;5130376;27;20034;-85
2023/05/03 04:52:01;;;;;;;;;;;;;;;15.86;56.12;102167.66;5104182;28;19921;-85
2023/05/03 04:54:27;;;;;;;;;;;;;;;15.86;56.25;102162.38;5095084;28;19924;-85
2023/05/03 04:56:53;;;;;;;;;;;;;;;15.86;56.21;102157.13;5101110;27;19959;-85
2023/05/03 04:59:19;;;;;;;;;;;;;;;15.85;56.12;102168.50;5112293;27;19919;-85
2023/05/03 05:01:44;;;;;;;;;;;;;;;15.87;56.09;102166.84;5123232;27;19930;-85
2023/05/03 05:04:10;;;;;;;;;;;;;;;15.86;56.08;102170.28;5115568;27;20000;-86
2023/05/03 05:06:35;;;;;;;;;;;;;;;15.84;56.17;102174.56;5109850;27;20430;-85
2023/05/03 05:09:00;;;;;;;;;;;;;;;15.84;56.17;102171.03;5128477;27;19969;-86
2023/05/03 05:11:26;;;;;;;;;;;;;;;15.85;56.25;102165.88;5116501;27;19920;-84
2023/05/03 05:13:51;;;;;;;;;;;;;;;15.84;56.36;102178.94;5086340;27;19928;-84
2023/05/03 05:16:18;;;;;;;;;;;;;;;15.84;56.29;102192.09;5126267;27;19919;-86
2023/05/03 05:18:43;;;;;;;;;;;;;;;15.81;56.62;102190.22;5112888;27;19926;-83
2023/05/03 05:21:09;;;;;;;;;;;;;;;15.76;56.70;102186.41;5123181;27;19919;-84
2023/05/03 05:23:35;;;;;;;;;;;;;;;15.78;56.74;102187.41;5126716;27;19919;-83
2023/05/03 05:26:00;;;;;;;;;;;;;;;15.81;56.75;102189.28;5108766;27;19926;-83
2023/05/03 05:28:29;;;;;;;;;;;;;;;15.79;56.93;102190.94;5094497;27;20387;-83
2023/05/03 05:30:54;;;;;;;;;;;;;;;15.79;57.02;102193.56;5092929;27;19926;-83
2023/05/03 05:33:20;;;;;;;;;;;;;;;15.79;56.92;102189.22;5105415;27;20017;-83
2023/05/03 05:35:48;;;;;;;;;;;;;;;15.74;57.31;102195.94;5148573;27;19976;-83
2023/05/03 05:38:15;;;;;;;;;;;;;;;15.75;57.76;102195.16;5149087;27;19915;-83
2023/05/03 05:40:40;;;;;;;;;;;;;;;15.78;57.51;102204.94;5138628;27;19911;-83
2023/05/03 05:43:05;;;;;;;;;;;;;;;15.77;57.37;102201.41;5112552;27;19957;-81
2023/05/03 05:45:31;;;;;;;;;;;;;;;15.77;57.58;102196.13;5144681;27;19930;-82
2023/05/03 05:47:57;;;;;;;;;;;;;;;15.74;57.54;102200.31;5131788;27;20444;-82
2023/05/03 05:50:22;;;;;;;;;;;;;;;15.77;57.65;102193.50;5144960;27;19923;-82
2023/05/03 05:52:50;;;;;;;;;;;;;;;15.76;57.42;102181.13;5114333;27;20434;-84
2023/05/03 05:55:15;;;;;;;;;;;;;;;15.76;57.69;102177.59;5146891;27;20387;-84
2023/05/03 05:57:41;;;;;;;;;;;;;;;15.77;57.56;102174.13;5115315;27;20002;-84
2023/05/03 06:00:13;;;;;;;;;;;;;;;15.74;57.64;102161.72;5132174;27;19915;-84
2023/05/03 06:02:39;;;;;;;;;;;;;;;15.71;57.83;102160.63;5129966;27;19922;-83
2023/05/03 06:05:05;;;;;;;;;;;;;;;15.72;57.63;102155.44;5140058;27;19915;-82
2023/05/03 06:07:30;;;;;;;;;;;;;;;15.72;57.90;102162.44;5145329;27;20395;-84
2023/05/03 06:09:56;;;;;;;;;;;;;;;15.72;57.83;102172.97;5135223;27;19911;-83
2023/05/03 06:12:21;;;;;;;;;;;;;;;15.68;57.68;102178.06;5153297;27;20372;-83
2023/05/03 06:14:46;;;;;;;;;;;;;;;15.77;57.32;102192.56;5132673;27;19940;-84
2023/05/03 06:17:14;;;;;;;;;;;;;;;15.74;57.46;102202.94;5132195;27;19923;-84
2023/05/03 06:19:40;;;;;;;;;;;;;;;15.71;57.39;102198.38;5116863;27;19998;-85
2023/05/03 06:22:05;;;;;;;;;;;;;;;15.75;57.40;102186.34;5124735;27;20368;-84
2023/05/03 06:24:31;;;;;;;;;;;;;;;15.74;57.37;102184.50;5113558;27;19939;-84
2023/05/03 06:26:57;;;;;;;;;;;;;;;15.78;57.30;102202.31;5132542;28;19915;-85
2023/05/03 06:29:23;;;;;;;;;;;;;;;15.80;57.09;102206.81;5132389;27;19930;-85
2023/05/03 06:31:48;;;;;;;;;;;;;;;15.72;57.20;102210.75;5104065;28;19923;-84
2023/05/03 06:34:15;;;;;;;;;;;;;;;15.76;57.15;102203.94;5115243;28;20434;-84
2023/05/03 06:36:41;;;;;;;;;;;;;;;15.70;57.29;102196.56;5131055;28;19915;-84
2023/05/03 06:39:08;;;;;;;;;;;;;;;15.70;57.26;102193.03;5134822;27;19919;-84
2023/05/03 06:41:33;;;;;;;;;;;;;;;15.68;57.30;102187.66;5130779;28;19920;-82
2023/05/03 06:43:59;;;;;;;;;;;;;;;15.70;57.72;102187.75;5144565;27;20512;-82
2023/05/03 06:46:26;;;;;;;;;;;;;;;15.64;57.66;102194.50;5124089;28;20358;-83
2023/05/03 06:48:54;;;;;;;;;;;;;;;15.72;57.27;102204.59;5105647;27;19916;-83
2023/05/03 06:51:26;;;;;;;;;;;;;;;15.70;57.41;102225.53;5152841;27;19915;-85
2023/05/03 06:53:51;;;;;;;;;;;;;;;15.69;57.41;102250.06;5139544;27;20400;-82
2023/05/03 06:56:17;;;;;;;;;;;;;;;15.70;57.42;102249.22;5153522;27;19915;-84
2023/05/03 06:58:42;;;;;;;;;;;;;;;15.73;57.30;102259.09;5116593;28;19920;-85
2023/05/03 07:01:08;;;;;;;;;;;;;;;15.70;57.38;102267.69;5095477;28;19938;-85
2023/05/03 07:03:33;;;;;;;;;;;;;;;15.67;57.56;102262.25;5132356;27;20420;-86
2023/05/03 07:05:59;;;;;;;;;;;;;;;15.65;57.49;102259.50;5146329;27;20410;-85
2023/05/03 07:08:24;;;;;;;;;;;;;;;15.66;57.38;102266.63;5140896;27;20018;-84
2023/05/03 07:10:49;;;;;;;;;;;;;;;15.70;57.33;102259.78;5136450;27;20506;-84
2023/05/03 07:13:15;;;;;;;;;;;;;;;15.68;57.55;102267.59;5121327;27;20071;-84
2023/05/03 07:15:40;;;;;;;;;;;;;;;15.67;57.42;102260.50;5129071;27;20337;-84
2023/05/03 07:18:06;;;;;;;;;;;;;;;15.69;57.51;102265.88;5087513;27;20369;-84
2023/05/03 07:20:31;;;;;;;;;;;;;;;15.68;57.55;102254.44;5128658;27;19915;-84
2023/05/03 07:22:57;;;;;;;;;;;;;;;15.67;57.50;102257.88;5143341;27;20403;-84
2023/05/03 07:25:22;;;;;;;;;;;;;;;15.72;57.58;102283.59;5127997;27;20419;-84
2023/05/03 07:27:48;;;;;;;;;;;;;;;15.74;57.64;102292.50;5139831;27;20013;-84
2023/05/03 07:30:13;;;;;;;;;;;;;;;15.71;57.67;102301.09;5157070;27;19987;-84
2023/05/03 07:32:38;;;;;;;;;;;;;;;15.71;57.59;102301.09;5134290;27;20434;-84
2023/05/03 07:35:04;;;;;;;;;;;;;;;15.70;57.51;102314.19;5136111;27;19964;-84
2023/05/03 07:37:30;;;;;;;;;;;;;;;15.74;57.53;102310.94;5149307;27;19922;-83
2023/05/03 07:39:55;;;;;;;;;;;;;;;15.72;57.45;102307.31;5110588;27;20352;-83
2023/05/03 07:42:21;;;;;;;;;;;;;;;15.74;57.69;102301.31;5136570;27;20006;-83
2023/05/03 07:44:46;;;;;;;;;;;;;;;15.74;57.40;102306.56;5101250;27;20376;-84
2023/05/03 07:47:12;;;;;;;;;;;;;;;15.77;57.62;102305.84;5118194;27;20043;-84
2023/05/03 07:49:38;;;;;;;;;;;;;;;15.80;57.54;102311.28;5088646;28;19924;-82
2023/05/03 07:52:04;;;;;;;;;;;;;;;15.87;57.48;102305.53;5128843;27;19926;-83
2023/05/03 07:54:29;;;;;;;;;;;;;;;15.82;57.41;102304.38;5135600;27;19915;-84
2023/05/03 07:56:55;;;;;;;;;;;;;;;15.80;57.74;102309.56;5123303;27;19938;-84
2023/05/03 07:59:20;;;;;;;;;;;;;;;15.81;57.61;102313.09;5122706;27;19919;-84
2023/05/03 08:01:46;;;;;;;;;;;;;;;15.77;57.69;102312.03;5147541;27;19917;-84
2023/05/03 08:04:11;;;;;;;;;;;;;;;15.82;57.68;102317.56;5130849;27;19922;-83
2023/05/03 08:06:37;;;;;;;;;;;;;;;15.90;57.51;102324.19;5121681;27;19915;-82
2023/05/03 08:09:05;;;;;;;;;;;;;;;15.83;57.51;102330.84;5140084;27;20310;-83
2023/05/03 08:11:31;;;;;;;;;;;;;;;15.85;57.65;102331.81;5133635;27;19920;-82
2023/05/03 08:13:56;;;;;;;;;;;;;;;15.87;57.71;102334.53;5121157;27;19915;-82
2023/05/03 08:16:22;;;;;;;;;;;;;;;15.85;57.65;102325.63;5145417;27;19920;-82
2023/05/03 08:18:47;;;;;;;;;;;;;;;15.90;57.56;102328.56;5116463;27;20010;-82
2023/05/03 08:21:13;;;;;;;;;;;;;;;15.87;57.70;102329.25;5136759;27;19923;-82
2023/05/03 08:23:39;;;;;;;;;;;;;;;15.85;57.71;102334.47;5127663;27;19922;-82
2023/05/03 08:26:06;;;;;;;;;;;;;;;15.86;57.64;102320.47;5135314;27;20013;-81
2023/05/03 08:28:32;;;;;;;;;;;;;;;15.88;57.63;102313.53;5154981;27;19963;-82
2023/05/03 08:30:57;;;;;;;;;;;;;;;15.93;57.78;102320.81;5154880;27;20426;-82
2023/05/03 08:33:23;;;;;;;;;;;;;;;15.88;57.84;102320.56;5136779;27;19976;-82
2023/05/03 08:35:48;;;;;;;;;;;;;;;15.92;57.77;102319.91;5119401;27;19972;-80
2023/05/03 08:38:14;;;;;;;;;;;;;;;15.94;57.86;102323.53;5140321;27;20288;-82
2023/05/03 08:40:40;;;;;;;;;;;;;;;15.96;57.66;102321.91;5141688;27;20010;-82
2023/05/03 08:43:06;;;;;;;;;;;;;;;15.92;57.88;102316.34;5130559;27;19927;-82
2023/05/03 08:45:32;;;;;;;;;;;;;;;15.92;57.74;102308.44;5133896;27;19942;-81
2023/05/03 08:48:01;;;;;;;;;;;;;;;15.94;57.96;102312.06;5147505;27;20384;-82
2023/05/03 08:50:26;;;;;;;;;;;;;;;15.95;57.84;102308.63;5129506;27;19968;-82
2023/05/03 08:52:51;;;;;;;;;;;;;;;15.94;58.11;102306.78;5115748;27;19923;-83
2023/05/03 08:55:17;;;;;;;;;;;;;;;15.95;58.06;102296.34;5135679;27;19928;-81
2023/05/03 08:57:43;;;;;;;;;;;;;;;15.95;58.01;102303.34;5128216;27;20076;-81
2023/05/03 09:00:11;;;;;;;;;;;;;;;15.93;57.92;102295.38;5115125;27;20002;-81
2023/05/03 09:02:38;;;;;;;;;;;;;;;15.96;58.16;102298.19;5125426;27;19939;-81
2023/05/03 09:05:05;;;;;;;;;;;;;;;15.96;58.32;102300.81;5142143;27;19919;-81
2023/05/03 09:07:30;;;;;;;;;;;;;;;16.00;58.12;102297.53;5125939;27;19920;-80
2023/05/03 09:09:57;;;;;;;;;;;;;;;15.99;58.01;102289.53;5125766;27;19933;-81
2023/05/03 09:12:32;;;;;;;;;;;;;;;15.96;58.18;102291.97;5138106;27;19923;-81
2023/05/03 09:14:58;;;;;;;;;;;;;;;15.97;58.32;102296.44;5137567;27;19920;-81
2023/05/03 09:17:24;;;;;;;;;;;;;;;16.02;58.13;102292.34;5124414;27;19921;-81
2023/05/03 09:19:51;;;;;;;;;;;;;;;16.03;57.91;102294.16;5107196;28;19915;-82
2023/05/03 09:22:16;;;;;;;;;;;;;;;15.99;58.19;102292.19;5112649;27;19919;-81
2023/05/03 09:24:50;;;;;;;;;;;;;;;16.05;58.12;102292.53;5106927;28;20725;-82
2023/05/03 09:27:20;;;;;;;;;;;;;;;16.02;58.19;102294.97;5095484;27;19915;-84
2023/05/03 09:29:46;;;;;;;;;;;;;;;16.03;58.49;102276.63;5093133;28;19924;-85
2023/05/03 09:32:11;;;;;;;;;;;;;;;16.01;58.42;102274.72;5110647;27;20270;-84
2023/05/03 09:34:37;;;;;;;;;;;;;;;16.00;58.44;102271.19;5121047;27;19919;-85
2023/05/03 09:37:02;;;;;;;;;;;;;;;16.00;58.56;102263.28;5117911;27;19923;-85
2023/05/03 09:39:28;;;;;;;;;;;;;;;16.03;58.47;102257.28;5121320;27;19924;-85
2023/05/03 09:41:53;;;;;;;;;;;;;;;16.03;58.43;102257.28;5104642;27;19924;-84
2023/05/03 09:44:19;;;;;;;;;;;;;;;16.02;58.57;102252.81;5104341;27;20311;-85
2023/05/03 09:47:03;;;;;;;;;;;;;;;16.00;58.71;102231.66;5096490;27;20301;-85
2023/05/03 09:49:37;;;;;;;;;;;;;;;16.03;58.59;102245.00;5118728;27;20059;-85
2023/05/03 09:52:03;;;;;;;;;;;;;;;16.01;58.68;102244.00;5127921;27;19923;-85
2023/05/03 09:54:30;;;;;;;;;;;;;;;15.98;58.75;102251.75;5104529;27;19920;-84
2023/05/03 09:56:56;;;;;;;;;;;;;;;16.03;58.73;102241.47;5104198;27;19923;-85
2023/05/03 09:59:21;;;;;;;;;;;;;;;16.08;58.53;102232.06;5113516;27;19920;-85
2023/05/03 10:01:47;;;;;;;;;;;;;;;16.09;58.63;102223.34;5114071;27;19961;-84
2023/05/03 10:04:14;;;;;;;;;;;;;;;16.08;58.73;102217.16;5121108;27;19926;-85
2023/05/03 10:06:42;;;;;;;;;;;;;;;16.07;58.57;102209.19;5116961;27;19920;-85
2023/05/03 10:09:13;;;;;;;;;;;;;;;16.11;58.47;102198.00;5124673;27;19927;-85
2023/05/03 10:11:39;;;;;;;;;;;;;;;16.14;58.46;102197.25;5109046;27;19919;-85
2023/05/03 10:14:05;;;;;;;;;;;;;;;16.08;58.63;102190.81;5099731;27;19919;-85
2023/05/03 10:16:33;;;;;;;;;;;;;;;16.07;58.58;102178.47;5104500;28;20014;-85
2023/05/03 10:19:02;;;;;;;;;;;;;;;16.12;58.50;102183.97;5104307;28;19924;-84
2023/05/03 10:21:47;;;;;;;;;;;;;;;16.13;58.63;102195.41;5116967;27;20320;-85
2023/05/03 10:24:14;;;;;;;;;;;;;;;16.13;58.73;102175.25;5110728;28;19928;-82
2023/05/03 10:27:00;;;;;;;;;;;;;;;16.13;58.76;102176.97;5120520;27;19919;-85
2023/05/03 10:29:44;;;;;;;;;;;;;;;16.13;58.83;102179.59;5129510;27;19915;-84
2023/05/03 10:32:29;;;;;;;;;;;;;;;16.17;58.84;102174.59;5126643;27;20396;-84
2023/05/03 10:35:09;;;;;;;;;;;;;;;16.15;59.13;102170.06;5113194;27;20368;-85
2023/05/03 10:37:35;;;;;;;;;;;;;;;16.13;59.29;102167.34;5109518;27;19942;-84
2023/05/03 10:40:08;;;;;;;;;;;;;;;16.14;59.15;102178.78;5143655;27;19922;-84
2023/05/03 10:42:34;;;;;;;;;;;;;;;16.15;59.29;102175.31;5101893;27;19924;-84
2023/05/03 10:45:00;;;;;;;;;;;;;;;16.14;59.45;102173.53;5132739;27;20564;-85
2023/05/03 10:47:26;;;;;;;;;;;;;;;16.15;59.20;102175.31;5125429;27;19916;-85
2023/05/03 10:50:10;;;;;;;;;;;;;;;16.18;59.13;102168.50;5136449;27;19985;-85
2023/05/03 10:52:38;;;;;;;;;;;;;;;16.18;59.14;102160.59;5112178;28;19926;-85
2023/05/03 10:55:11;;;;;;;;;;;;;;;16.17;59.32;102155.22;5129969;27;20404;-85
2023/05/03 10:57:38;;;;;;;;;;;;;;;16.20;58.99;102158.94;5130173;27;19916;-85
2023/05/03 11:00:07;;;;;;;;;;;;;;;16.17;59.25;102150.88;5106925;27;20409;-84
2023/05/03 11:02:32;;;;;;;;;;;;;;;16.16;59.23;102154.31;5128034;27;19922;-85
2023/05/03 11:04:59;;;;;;;;;;;;;;;16.19;59.15;102162.41;5124474;27;20556;-85
2023/05/03 11:07:24;;;;;;;;;;;;;;;16.21;59.12;102176.59;5115378;27;19915;-84
2023/05/03 11:09:51;;;;;;;;;;;;;;;16.26;59.10;102172.44;5099107;27;19938;-85
2023/05/03 11:12:17;;;;;;;;;;;;;;;16.30;58.96;102178.81;5102328;27;20022;-85
2023/05/03 11:14:45;;;;;;;;;;;;;;;16.31;58.91;102170.06;5094448;27;20053;-82
2023/05/03 11:17:10;;;;;;;;;;;;;;;16.31;59.03;102182.34;5129801;27;20415;-86
2023/05/03 11:19:36;;;;;;;;;;;;;;;16.32;58.86;102187.69;5111140;27;19927;-85
2023/05/03 11:22:02;;;;;;;;;;;;;;;16.35;58.75;102195.75;5129242;27;19916;-85
2023/05/03 11:24:27;;;;;;;;;;;;;;;16.39;58.60;102202.09;5116150;27;20010;-85
2023/05/03 11:26:53;;;;;;;;;;;;;;;16.37;58.60;102207.28;5110686;27;19962;-85
2023/05/03 11:29:20;;;;;;;;;;;;;;;16.37;58.89;102207.28;5095677;27;19927;-85
2023/05/03 11:31:45;;;;;;;;;;;;;;;16.43;58.56;102210.25;5134186;27;19916;-85
2023/05/03 11:34:11;;;;;;;;;;;;;;;16.44;58.57;102208.53;5115603;27;20297;-85
2023/05/03 11:36:37;;;;;;;;;;;;;;;16.44;58.43;102198.88;5136441;27;20350;-86
2023/05/03 11:39:05;;;;;;;;;;;;;;;16.40;58.76;102196.94;5103130;27;19916;-85
2023/05/03 11:41:31;;;;;;;;;;;;;;;16.42;58.78;102191.72;5112685;27;20410;-86
2023/05/03 11:43:56;;;;;;;;;;;;;;;16.43;58.79;102190.91;5121997;27;19919;-85
2023/05/03 11:46:23;;;;;;;;;;;;;;;16.44;58.83;102192.69;5135878;27;19957;-85
2023/05/03 11:48:48;;;;;;;;;;;;;;;16.45;58.77;102189.25;5099521;27;19942;-84
2023/05/03 11:51:14;;;;;;;;;;;;;;;16.44;58.55;102184.78;5114803;27;20297;-85
2023/05/03 11:53:40;;;;;;;;;;;;;;;16.47;58.65;102175.31;5138984;27;19915;-85
2023/05/03 11:56:07;;;;;;;;;;;;;;;16.43;58.61;102169.81;5113619;27;20011;-86
2023/05/03 11:58:32;;;;;;;;;;;;;;;16.45;58.71;102174.34;5111406;27;19926;-85
2023/05/03 12:00:57;;;;;;;;;;;;;;;16.44;58.69;102171.59;5133097;27;19915;-85
2023/05/03 12:03:24;;;;;;;;;;;;;;;16.49;58.68;102194.75;5115531;27;20627;-85
2023/05/03 12:05:51;;;;;;;;;;;;;;;16.52;58.98;102201.91;5109292;27;20023;-84
2023/05/03 12:08:17;;;;;;;;;;;;;;;16.51;59.56;102200.13;5127415;27;20361;-85
2023/05/03 12:10:43;;;;;;;;;;;;;;;16.53;58.99;102197.53;5131649;27;19926;-85
2023/05/03 12:13:08;;;;;;;;;;;;;;;16.52;58.82;102188.75;5133436;27;19915;-85
2023/05/03 12:15:34;;;;;;;;;;;;;;;16.55;58.85;102180.06;5111268;27;19992;-85
2023/05/03 12:18:01;;;;;;;;;;;;;;;16.56;58.94;102181.91;5137793;27;19940;-83
2023/05/03 12:20:56;;;;;;;;;;;;;;;16.59;59.20;102184.69;5101510;27;19916;-85
2023/05/03 12:23:38;;;;;;;;;;;;;;;;;;;;;
2023/05/03 12:26:09;;;;;;;;;;;;;;;16.58;59.89;102165.31;5104654;27;19920;-84
2023/05/03 12:28:35;;;;;;;;;;;;;;;16.62;59.38;102172.56;5097760;28;19962;-84
2023/05/03 12:31:01;;;;;;;;;;;;;;;16.61;59.62;102168.09;5112997;27;19946;-85
2023/05/03 12:33:26;;;;;;;;;;;;;;;16.63;59.61;102161.19;5112029;27;20403;-85
2023/05/03 12:35:51;;;;;;;;;;;;;;;16.54;60.29;102155.44;5121706;27;20389;-85